sensor_id;sensor_type;location;lat;lon;timestamp;pressure;altitude;pressure_sealevel;temperature;humidity
36380;BME280;22411;53.016;18.632;2023-04-21T00:00:57;101308.31;;;9.72;100.00
36380;BME280;22411;53.016;18.632;2023-04-21T00:03:27;101313.53;;;9.70;100.00
36380;BME280;22411;53.016;18.632;2023-04-21T00:05:55;101311.03;;;9.68;100.00
36380;BME280;22411;53.016;18.632;2023-04-21T00:08:24;101314.63;;;9.66;100.00
36380;BME280;22411;53.016;18.632;2023-04-21T00:10:55;101306.88;;;9.66;100.00
36380;BME280;22411;53.016;18.632;2023-04-21T00:13:22;101315.00;;;9.58;100.00
36380;BME280;22411;53.016;18.632;2023-04-21T00:15:49;101310.16;;;9.52;100.00
36380;BME280;22411;53.016;18.632;2023-04-21T00:18:15;101305.16;;;9.49;100.00
36380;BME280;22411;53.016;18.632;2023-04-21T00:20:42;101312.22;;;9.46;100.00
36380;BME280;22411;53.016;18.632;2023-04-21T00:23:09;101312.47;;;9.41;100.00
36380;BME280;22411;53.016;18.632;2023-04-21T00:25:36;101311.53;;;9.42;100.00
36380;BME280;22411;53.016;18.632;2023-04-21T00:28:02;101310.72;;;9.41;100.00
36380;BME280;22411;53.016;18.632;2023-04-21T00:30:28;101302.94;;;9.41;100.00
36380;BME280;22411;53.016;18.632;2023-04-21T00:32:54;101308.25;;;9.38;100.00
36380;BME280;22411;53.016;18.632;2023-04-21T00:35:20;101304.09;;;9.36;100.00
36380;BME280;22411;53.016;18.632;2023-04-21T00:37:46;101298.22;;;9.32;100.00
36380;BME280;22411;53.016;18.632;2023-04-21T00:40:15;101295.72;;;9.31;100.00
36380;BME280;22411;53.016;18.632;2023-04-21T00:42:44;101297.56;;;9.29;100.00
36380;BME280;22411;53.016;18.632;2023-04-21T00:45:10;101300.22;;;9.27;100.00
36380;BME280;22411;53.016;18.632;2023-04-21T00:47:37;101302.19;;;9.22;100.00
36380;BME280;22411;53.016;18.632;2023-04-21T00:50:03;101305.09;;;9.16;100.00
36380;BME280;22411;53.016;18.632;2023-04-21T00:52:30;101293.06;;;9.15;100.00
36380;BME280;22411;53.016;18.632;2023-04-21T00:54:56;101299.16;;;9.14;100.00
36380;BME280;22411;53.016;18.632;2023-04-21T00:57:22;101302.66;;;9.13;100.00
36380;BME280;22411;53.016;18.632;2023-04-21T00:59:48;101296.66;;;9.12;100.00
36380;BME280;22411;53.016;18.632;2023-04-21T01:02:16;101299.00;;;9.17;100.00
36380;BME280;22411;53.016;18.632;2023-04-21T01:04:43;101292.25;;;9.14;100.00
36380;BME280;22411;53.016;18.632;2023-04-21T01:07:10;101296.06;;;9.07;100.00
36380;BME280;22411;53.016;18.632;2023-04-21T01:09:36;101297.03;;;9.05;100.00
36380;BME280;22411;53.016;18.632;2023-04-21T01:12:05;101300.63;;;9.02;100.00
36380;BME280;22411;53.016;18.632;2023-04-21T01:14:31;101298.25;;;8.98;100.00
36380;BME280;22411;53.016;18.632;2023-04-21T01:16:58;101293.91;;;8.98;100.00
36380;BME280;22411;53.016;18.632;2023-04-21T01:19:25;101295.72;;;8.96;100.00
36380;BME280;22411;53.016;18.632;2023-04-21T01:21:53;101297.47;;;8.96;100.00
36380;BME280;22411;53.016;18.632;2023-04-21T01:24:23;101303.66;;;8.93;100.00
36380;BME280;22411;53.016;18.632;2023-04-21T01:26:52;101288.22;;;8.92;100.00
36380;BME280;22411;53.016;18.632;2023-04-21T01:29:18;101286.47;;;8.92;100.00
36380;BME280;22411;53.016;18.632;2023-04-21T01:31:45;101289.19;;;8.89;100.00
36380;BME280;22411;53.016;18.632;2023-04-21T01:34:13;101287.66;;;8.85;100.00
36380;BME280;22411;53.016;18.632;2023-04-21T01:36:40;101294.56;;;8.84;100.00
36380;BME280;22411;53.016;18.632;2023-04-21T01:39:07;101295.72;;;8.79;100.00
36380;BME280;22411;53.016;18.632;2023-04-21T01:41:33;101288.13;;;8.76;100.00
36380;BME280;22411;53.016;18.632;2023-04-21T01:43:59;101291.59;;;8.75;100.00
36380;BME280;22411;53.016;18.632;2023-04-21T01:46:26;101292.59;;;8.72;100.00
36380;BME280;22411;53.016;18.632;2023-04-21T01:48:52;101290.22;;;8.68;100.00
36380;BME280;22411;53.016;18.632;2023-04-21T01:51:18;101283.59;;;8.62;100.00
36380;BME280;22411;53.016;18.632;2023-04-21T01:53:44;101293.03;;;8.63;100.00
36380;BME280;22411;53.016;18.632;2023-04-21T01:56:13;101298.41;;;8.58;100.00
36380;BME280;22411;53.016;18.632;2023-04-21T01:58:39;101291.78;;;8.53;100.00
36380;BME280;22411;53.016;18.632;2023-04-21T02:01:05;101293.53;;;8.52;100.00
36380;BME280;22411;53.016;18.632;2023-04-21T02:03:31;101294.53;;;8.50;100.00
36380;BME280;22411;53.016;18.632;2023-04-21T02:05:57;101289.56;;;8.45;100.00
36380;BME280;22411;53.016;18.632;2023-04-21T02:08:23;101285.47;;;8.41;100.00
36380;BME280;22411;53.016;18.632;2023-04-21T02:10:49;101294.25;;;8.37;100.00
36380;BME280;22411;53.016;18.632;2023-04-21T02:13:16;101287.47;;;8.34;100.00
36380;BME280;22411;53.016;18.632;2023-04-21T02:15:42;101294.31;;;8.35;100.00
36380;BME280;22411;53.016;18.632;2023-04-21T02:18:08;101298.75;;;8.32;100.00
36380;BME280;22411;53.016;18.632;2023-04-21T02:20:36;101288.59;;;8.29;100.00
36380;BME280;22411;53.016;18.632;2023-04-21T02:23:02;101291.94;;;8.31;100.00
36380;BME280;22411;53.016;18.632;2023-04-21T02:25:29;101291.31;;;8.26;100.00
36380;BME280;22411;53.016;18.632;2023-04-21T02:27:55;101293.13;;;8.24;100.00
36380;BME280;22411;53.016;18.632;2023-04-21T02:30:22;101296.03;;;8.16;100.00
36380;BME280;22411;53.016;18.632;2023-04-21T02:32:49;101298.09;;;8.09;100.00
36380;BME280;22411;53.016;18.632;2023-04-21T02:35:16;101300.03;;;8.04;100.00
36380;BME280;22411;53.016;18.632;2023-04-21T02:37:42;101293.13;;;8.05;100.00
36380;BME280;22411;53.016;18.632;2023-04-21T02:40:09;101291.53;;;8.02;100.00
36380;BME280;22411;53.016;18.632;2023-04-21T02:42:37;101298.50;;;8.00;100.00
36380;BME280;22411;53.016;18.632;2023-04-21T02:45:05;101296.06;;;7.97;100.00
36380;BME280;22411;53.016;18.632;2023-04-21T02:47:31;101291.56;;;8.01;100.00
36380;BME280;22411;53.016;18.632;2023-04-21T02:49:58;101288.25;;;7.99;100.00
36380;BME280;22411;53.016;18.632;2023-04-21T02:52:24;101293.47;;;7.97;100.00
36380;BME280;22411;53.016;18.632;2023-04-21T02:54:51;101295.28;;;7.95;100.00
36380;BME280;22411;53.016;18.632;2023-04-21T02:57:17;101292.97;;;7.89;100.00
36380;BME280;22411;53.016;18.632;2023-04-21T02:59:44;101297.38;;;7.87;100.00
36380;BME280;22411;53.016;18.632;2023-04-21T03:02:11;101294.72;;;7.89;100.00
36380;BME280;22411;53.016;18.632;2023-04-21T03:04:38;101295.72;;;7.86;100.00
36380;BME280;22411;53.016;18.632;2023-04-21T03:07:04;101291.50;;;7.83;100.00
36380;BME280;22411;53.016;18.632;2023-04-21T03:09:31;101291.66;;;7.80;100.00
36380;BME280;22411;53.016;18.632;2023-04-21T03:11:57;101279.63;;;7.79;100.00
36380;BME280;22411;53.016;18.632;2023-04-21T03:14:24;101287.53;;;7.76;100.00
36380;BME280;22411;53.016;18.632;2023-04-21T03:16:50;101280.81;;;7.72;100.00
36380;BME280;22411;53.016;18.632;2023-04-21T03:19:16;101278.44;;;7.68;100.00
36380;BME280;22411;53.016;18.632;2023-04-21T03:21:42;101284.91;;;7.57;100.00
36380;BME280;22411;53.016;18.632;2023-04-21T03:24:09;101280.84;;;7.52;100.00
36380;BME280;22411;53.016;18.632;2023-04-21T03:26:38;101274.13;;;7.48;100.00
36380;BME280;22411;53.016;18.632;2023-04-21T03:29:05;101282.94;;;7.44;100.00
36380;BME280;22411;53.016;18.632;2023-04-21T03:31:31;101278.66;;;7.43;100.00
36380;BME280;22411;53.016;18.632;2023-04-21T03:33:58;101275.44;;;7.38;100.00
36380;BME280;22411;53.016;18.632;2023-04-21T03:36:24;101278.84;;;7.38;100.00
36380;BME280;22411;53.016;18.632;2023-04-21T03:38:50;101286.66;;;7.37;100.00
36380;BME280;22411;53.016;18.632;2023-04-21T03:41:16;101274.88;;;7.31;100.00
36380;BME280;22411;53.016;18.632;2023-04-21T03:43:42;101280.22;;;7.26;100.00
36380;BME280;22411;53.016;18.632;2023-04-21T03:46:19;101279.66;;;7.20;100.00
36380;BME280;22411;53.016;18.632;2023-04-21T03:48:46;101279.72;;;7.18;100.00
36380;BME280;22411;53.016;18.632;2023-04-21T03:51:13;101278.06;;;7.17;100.00
36380;BME280;22411;53.016;18.632;2023-04-21T03:53:39;101272.91;;;7.17;100.00
36380;BME280;22411;53.016;18.632;2023-04-21T03:56:06;101279.97;;;7.12;100.00
36380;BME280;22411;53.016;18.632;2023-04-21T03:58:32;101281.66;;;7.13;100.00
36380;BME280;22411;53.016;18.632;2023-04-21T04:00:58;101276.41;;;7.15;100.00
36380;BME280;22411;53.016;18.632;2023-04-21T04:03:25;101275.50;;;7.16;100.00
36380;BME280;22411;53.016;18.632;2023-04-21T04:05:52;101280.75;;;7.14;100.00
36380;BME280;22411;53.016;18.632;2023-04-21T04:08:18;101275.78;;;7.10;100.00
36380;BME280;22411;53.016;18.632;2023-04-21T04:10:44;101282.41;;;7.15;100.00
36380;BME280;22411;53.016;18.632;2023-04-21T04:13:10;101279.19;;;7.10;100.00
36380;BME280;22411;53.016;18.632;2023-04-21T04:15:36;101280.09;;;7.09;100.00
36380;BME280;22411;53.016;18.632;2023-04-21T04:18:02;101282.69;;;7.09;100.00
36380;BME280;22411;53.016;18.632;2023-04-21T04:20:28;101280.22;;;7.06;100.00
36380;BME280;22411;53.016;18.632;2023-04-21T04:22:55;101283.69;;;7.05;100.00
36380;BME280;22411;53.016;18.632;2023-04-21T04:25:21;101282.09;;;7.02;100.00
36380;BME280;22411;53.016;18.632;2023-04-21T04:27:47;101288.75;;;7.08;100.00
36380;BME280;22411;53.016;18.632;2023-04-21T04:30:15;101288.78;;;7.06;100.00
36380;BME280;22411;53.016;18.632;2023-04-21T04:32:41;101286.09;;;7.10;100.00
36380;BME280;22411;53.016;18.632;2023-04-21T04:35:08;101292.16;;;7.08;100.00
36380;BME280;22411;53.016;18.632;2023-04-21T04:37:35;101291.13;;;7.13;100.00
36380;BME280;22411;53.016;18.632;2023-04-21T04:40:02;101292.66;;;7.17;100.00
36380;BME280;22411;53.016;18.632;2023-04-21T04:42:35;101288.28;;;7.19;100.00
36380;BME280;22411;53.016;18.632;2023-04-21T04:45:01;101288.03;;;7.25;100.00
36380;BME280;22411;53.016;18.632;2023-04-21T04:47:29;101293.75;;;7.31;100.00
36380;BME280;22411;53.016;18.632;2023-04-21T04:49:55;101294.41;;;7.37;100.00
36380;BME280;22411;53.016;18.632;2023-04-21T04:52:22;101293.31;;;7.42;100.00
36380;BME280;22411;53.016;18.632;2023-04-21T04:54:48;101291.44;;;7.46;100.00
36380;BME280;22411;53.016;18.632;2023-04-21T04:57:14;101293.00;;;7.50;100.00
36380;BME280;22411;53.016;18.632;2023-04-21T04:59:40;101290.91;;;7.58;100.00
36380;BME280;22411;53.016;18.632;2023-04-21T05:02:07;101296.69;;;7.63;100.00
36380;BME280;22411;53.016;18.632;2023-04-21T05:04:33;101288.84;;;7.66;100.00
36380;BME280;22411;53.016;18.632;2023-04-21T05:07:00;101292.88;;;7.72;100.00
36380;BME280;22411;53.016;18.632;2023-04-21T05:09:26;101292.50;;;7.81;100.00
36380;BME280;22411;53.016;18.632;2023-04-21T05:11:52;101298.28;;;7.86;100.00
36380;BME280;22411;53.016;18.632;2023-04-21T05:14:18;101293.59;;;7.94;100.00
36380;BME280;22411;53.016;18.632;2023-04-21T05:16:45;101295.78;;;8.03;100.00
36380;BME280;22411;53.016;18.632;2023-04-21T05:19:11;101305.69;;;8.12;100.00
36380;BME280;22411;53.016;18.632;2023-04-21T05:21:37;101297.59;;;8.20;100.00
36380;BME280;22411;53.016;18.632;2023-04-21T05:24:03;101304.91;;;8.29;100.00
36380;BME280;22411;53.016;18.632;2023-04-21T05:26:29;101307.75;;;8.44;100.00
36380;BME280;22411;53.016;18.632;2023-04-21T05:28:56;101297.78;;;8.53;100.00
36380;BME280;22411;53.016;18.632;2023-04-21T05:31:24;101302.53;;;8.62;100.00
36380;BME280;22411;53.016;18.632;2023-04-21T05:33:50;101310.59;;;8.74;100.00
36380;BME280;22411;53.016;18.632;2023-04-21T05:36:17;101306.75;;;8.82;100.00
36380;BME280;22411;53.016;18.632;2023-04-21T05:38:44;101309.72;;;8.92;100.00
36380;BME280;22411;53.016;18.632;2023-04-21T05:41:11;101310.97;;;9.02;100.00
36380;BME280;22411;53.016;18.632;2023-04-21T05:43:38;101304.34;;;9.14;100.00
36380;BME280;22411;53.016;18.632;2023-04-21T05:46:08;101311.66;;;9.23;100.00
36380;BME280;22411;53.016;18.632;2023-04-21T05:48:34;101308.53;;;9.34;100.00
36380;BME280;22411;53.016;18.632;2023-04-21T05:51:14;101306.13;;;9.47;100.00
36380;BME280;22411;53.016;18.632;2023-04-21T05:53:43;101309.00;;;9.58;100.00
36380;BME280;22411;53.016;18.632;2023-04-21T05:56:11;101310.81;;;9.73;100.00
36380;BME280;22411;53.016;18.632;2023-04-21T05:58:38;101311.16;;;9.83;100.00
36380;BME280;22411;53.016;18.632;2023-04-21T06:01:04;101309.09;;;9.89;100.00
36380;BME280;22411;53.016;18.632;2023-04-21T06:03:33;101308.41;;;10.02;100.00
36380;BME280;22411;53.016;18.632;2023-04-21T06:06:00;101307.88;;;10.12;100.00
36380;BME280;22411;53.016;18.632;2023-04-21T06:08:26;101306.53;;;10.21;100.00
36380;BME280;22411;53.016;18.632;2023-04-21T06:10:53;101305.00;;;10.34;100.00
36380;BME280;22411;53.016;18.632;2023-04-21T06:13:19;101306.06;;;10.46;100.00
36380;BME280;22411;53.016;18.632;2023-04-21T06:15:45;101305.47;;;10.57;100.00
36380;BME280;22411;53.016;18.632;2023-04-21T06:18:11;101303.09;;;10.68;100.00
36380;BME280;22411;53.016;18.632;2023-04-21T06:20:38;101311.78;;;10.83;100.00
36380;BME280;22411;53.016;18.632;2023-04-21T06:23:08;101308.47;;;10.95;100.00
36380;BME280;22411;53.016;18.632;2023-04-21T06:25:34;101305.28;;;11.06;100.00
36380;BME280;22411;53.016;18.632;2023-04-21T06:28:01;101303.16;;;11.12;100.00
36380;BME280;22411;53.016;18.632;2023-04-21T06:30:27;101303.56;;;11.20;100.00
36380;BME280;22411;53.016;18.632;2023-04-21T06:32:53;101303.84;;;11.30;100.00
36380;BME280;22411;53.016;18.632;2023-04-21T06:35:20;101302.47;;;11.39;100.00
36380;BME280;22411;53.016;18.632;2023-04-21T06:37:46;101307.69;;;11.53;100.00
36380;BME280;22411;53.016;18.632;2023-04-21T06:40:12;101303.50;;;11.65;100.00
36380;BME280;22411;53.016;18.632;2023-04-21T06:42:41;101300.09;;;11.78;100.00
36380;BME280;22411;53.016;18.632;2023-04-21T06:45:08;101299.47;;;11.89;100.00
36380;BME280;22411;53.016;18.632;2023-04-21T06:47:35;101298.69;;;12.01;100.00
36380;BME280;22411;53.016;18.632;2023-04-21T06:50:02;101299.63;;;12.15;100.00
36380;BME280;22411;53.016;18.632;2023-04-21T06:52:27;101301.66;;;12.24;100.00
36380;BME280;22411;53.016;18.632;2023-04-21T06:54:54;101301.88;;;12.34;100.00
36380;BME280;22411;53.016;18.632;2023-04-21T06:57:20;101302.91;;;12.45;99.09
36380;BME280;22411;53.016;18.632;2023-04-21T06:59:46;101291.06;;;12.54;95.93
36380;BME280;22411;53.016;18.632;2023-04-21T07:02:12;101302.53;;;12.64;94.44
36380;BME280;22411;53.016;18.632;2023-04-21T07:04:38;101293.84;;;12.78;94.36
36380;BME280;22411;53.016;18.632;2023-04-21T07:07:05;101303.66;;;12.87;93.18
36380;BME280;22411;53.016;18.632;2023-04-21T07:09:31;101295.22;;;12.96;93.93
36380;BME280;22411;53.016;18.632;2023-04-21T07:11:59;101298.06;;;13.06;93.57
36380;BME280;22411;53.016;18.632;2023-04-21T07:14:26;101291.88;;;13.21;88.57
36380;BME280;22411;53.016;18.632;2023-04-21T07:16:52;101297.19;;;13.32;89.20
36380;BME280;22411;53.016;18.632;2023-04-21T07:19:20;101295.44;;;13.46;88.21
36380;BME280;22411;53.016;18.632;2023-04-21T07:21:46;101299.59;;;13.61;84.19
36380;BME280;22411;53.016;18.632;2023-04-21T07:24:13;101297.09;;;13.72;82.27
36380;BME280;22411;53.016;18.632;2023-04-21T07:26:40;101294.25;;;13.88;82.87
36380;BME280;22411;53.016;18.632;2023-04-21T07:29:06;101291.50;;;14.02;83.12
36380;BME280;22411;53.016;18.632;2023-04-21T07:31:33;101294.91;;;14.16;76.10
36380;BME280;22411;53.016;18.632;2023-04-21T07:34:00;101291.09;;;14.32;78.48
36380;BME280;22411;53.016;18.632;2023-04-21T07:36:27;101291.81;;;14.47;75.34
36380;BME280;22411;53.016;18.632;2023-04-21T07:38:53;101286.53;;;14.60;72.79
36380;BME280;22411;53.016;18.632;2023-04-21T07:41:20;101288.97;;;14.74;72.16
36380;BME280;22411;53.016;18.632;2023-04-21T07:43:47;101286.31;;;14.87;69.99
36380;BME280;22411;53.016;18.632;2023-04-21T07:46:13;101291.44;;;15.00;67.83
36380;BME280;22411;53.016;18.632;2023-04-21T07:48:39;101290.84;;;15.07;65.35
36380;BME280;22411;53.016;18.632;2023-04-21T07:51:05;101281.84;;;15.11;64.59
36380;BME280;22411;53.016;18.632;2023-04-21T07:53:32;101287.56;;;15.28;65.03
36380;BME280;22411;53.016;18.632;2023-04-21T07:55:58;101286.53;;;15.41;66.80
36380;BME280;22411;53.016;18.632;2023-04-21T07:58:24;101283.56;;;15.57;65.59
36380;BME280;22411;53.016;18.632;2023-04-21T08:00:50;101276.72;;;15.67;60.47
36380;BME280;22411;53.016;18.632;2023-04-21T08:03:16;101282.06;;;15.77;59.98
36380;BME280;22411;53.016;18.632;2023-04-21T08:05:42;101277.19;;;15.84;59.17
36380;BME280;22411;53.016;18.632;2023-04-21T08:08:09;101279.06;;;16.04;61.51
36380;BME280;22411;53.016;18.632;2023-04-21T08:10:35;101270.00;;;16.19;57.43
36380;BME280;22411;53.016;18.632;2023-04-21T08:13:01;101281.88;;;16.35;56.69
36380;BME280;22411;53.016;18.632;2023-04-21T08:15:32;101281.09;;;16.44;55.72
36380;BME280;22411;53.016;18.632;2023-04-21T08:17:59;101273.94;;;16.57;56.20
36380;BME280;22411;53.016;18.632;2023-04-21T08:20:26;101272.72;;;16.72;57.97
36380;BME280;22411;53.016;18.632;2023-04-21T08:22:53;101267.88;;;16.89;56.48
36380;BME280;22411;53.016;18.632;2023-04-21T08:25:20;101263.84;;;17.06;51.62
36380;BME280;22411;53.016;18.632;2023-04-21T08:27:46;101275.66;;;17.21;48.36
36380;BME280;22411;53.016;18.632;2023-04-21T08:30:12;101267.72;;;17.32;47.99
36380;BME280;22411;53.016;18.632;2023-04-21T08:32:39;101274.00;;;17.50;47.87
36380;BME280;22411;53.016;18.632;2023-04-21T08:35:05;101272.44;;;17.69;49.58
36380;BME280;22411;53.016;18.632;2023-04-21T08:37:35;101269.63;;;17.91;47.86
36380;BME280;22411;53.016;18.632;2023-04-21T08:40:02;101256.94;;;17.96;48.36
36380;BME280;22411;53.016;18.632;2023-04-21T08:42:29;101259.47;;;18.17;48.62
36380;BME280;22411;53.016;18.632;2023-04-21T08:44:55;101263.06;;;18.45;44.83
36380;BME280;22411;53.016;18.632;2023-04-21T08:47:23;101261.84;;;18.59;43.52
36380;BME280;22411;53.016;18.632;2023-04-21T08:49:50;101262.94;;;18.66;43.58
36380;BME280;22411;53.016;18.632;2023-04-21T08:52:18;101263.38;;;18.81;44.92
36380;BME280;22411;53.016;18.632;2023-04-21T08:54:48;101264.75;;;18.95;41.38
36380;BME280;22411;53.016;18.632;2023-04-21T08:57:16;101255.34;;;19.02;41.91
36380;BME280;22411;53.016;18.632;2023-04-21T08:59:44;101257.53;;;19.16;43.05
36380;BME280;22411;53.016;18.632;2023-04-21T09:02:15;101261.19;;;19.33;42.59
36380;BME280;22411;53.016;18.632;2023-04-21T09:04:44;101251.56;;;19.61;41.66
36380;BME280;22411;53.016;18.632;2023-04-21T09:07:11;101248.13;;;19.88;40.49
36380;BME280;22411;53.016;18.632;2023-04-21T09:12:18;101255.16;;;20.15;37.24
36380;BME280;22411;53.016;18.632;2023-04-21T09:14:44;101254.34;;;20.32;36.14
36380;BME280;22411;53.016;18.632;2023-04-21T09:17:11;101253.19;;;20.35;37.43
36380;BME280;22411;53.016;18.632;2023-04-21T09:19:37;101249.84;;;20.25;36.47
36380;BME280;22411;53.016;18.632;2023-04-21T09:22:03;101246.44;;;20.32;38.04
36380;BME280;22411;53.016;18.632;2023-04-21T09:24:30;101247.47;;;20.75;34.46
36380;BME280;22411;53.016;18.632;2023-04-21T09:26:57;101240.53;;;20.92;34.87
36380;BME280;22411;53.016;18.632;2023-04-21T09:29:23;101247.44;;;20.93;34.89
36380;BME280;22411;53.016;18.632;2023-04-21T09:31:50;101231.53;;;21.03;33.94
36380;BME280;22411;53.016;18.632;2023-04-21T09:34:23;101232.06;;;21.06;33.59
36380;BME280;22411;53.016;18.632;2023-04-21T09:37:03;101237.31;;;21.06;33.72
36380;BME280;22411;53.016;18.632;2023-04-21T09:39:33;101234.59;;;21.16;32.94
36380;BME280;22411;53.016;18.632;2023-04-21T09:41:59;101240.34;;;21.37;32.92
36380;BME280;22411;53.016;18.632;2023-04-21T09:44:27;101239.97;;;21.32;32.84
36380;BME280;22411;53.016;18.632;2023-04-21T09:46:59;101240.22;;;21.47;33.19
36380;BME280;22411;53.016;18.632;2023-04-21T09:49:30;101234.00;;;21.64;31.75
36380;BME280;22411;53.016;18.632;2023-04-21T09:52:00;101234.75;;;21.91;32.61
36380;BME280;22411;53.016;18.632;2023-04-21T09:54:29;101238.34;;;21.82;32.68
36380;BME280;22411;53.016;18.632;2023-04-21T09:56:57;101232.28;;;21.89;32.04
36380;BME280;22411;53.016;18.632;2023-04-21T09:59:34;101235.50;;;22.34;30.65
36380;BME280;22411;53.016;18.632;2023-04-21T10:02:04;101226.94;;;22.32;30.66
36380;BME280;22411;53.016;18.632;2023-04-21T10:04:30;101216.06;;;22.43;30.47
36380;BME280;22411;53.016;18.632;2023-04-21T10:06:59;101217.03;;;22.66;30.62
36380;BME280;22411;53.016;18.632;2023-04-21T10:09:32;101223.63;;;22.70;30.36
36380;BME280;22411;53.016;18.632;2023-04-21T10:12:01;101215.72;;;22.54;29.47
36380;BME280;22411;53.016;18.632;2023-04-21T10:14:28;101215.56;;;22.64;37.65
36380;BME280;22411;53.016;18.632;2023-04-21T10:16:56;101212.38;;;22.77;35.71
36380;BME280;22411;53.016;18.632;2023-04-21T10:19:26;101205.31;;;22.61;35.33
36380;BME280;22411;53.016;18.632;2023-04-21T10:21:56;101207.78;;;22.70;32.71
36380;BME280;22411;53.016;18.632;2023-04-21T10:24:22;101200.31;;;22.82;31.75
36380;BME280;22411;53.016;18.632;2023-04-21T10:26:49;101213.19;;;23.10;28.90
36380;BME280;22411;53.016;18.632;2023-04-21T10:29:27;101202.81;;;23.00;28.14
36380;BME280;22411;53.016;18.632;2023-04-21T10:31:54;101202.03;;;22.42;27.97
36380;BME280;22411;53.016;18.632;2023-04-21T10:34:41;101200.81;;;22.86;27.94
36380;BME280;22411;53.016;18.632;2023-04-21T10:37:10;101206.81;;;23.35;27.56
36380;BME280;22411;53.016;18.632;2023-04-21T10:39:45;101199.81;;;23.51;27.87
36380;BME280;22411;53.016;18.632;2023-04-21T10:47:40;101202.50;;;22.46;27.08
36380;BME280;22411;53.016;18.632;2023-04-21T10:50:22;101193.28;;;22.58;27.05
36380;BME280;22411;53.016;18.632;2023-04-21T10:52:56;101193.81;;;23.26;26.65
36380;BME280;22411;53.016;18.632;2023-04-21T10:55:28;101193.28;;;24.00;25.95
36380;BME280;22411;53.016;18.632;2023-04-21T10:57:55;101197.09;;;24.44;25.53
36380;BME280;22411;53.016;18.632;2023-04-21T11:00:23;101191.56;;;24.08;26.00
36380;BME280;22411;53.016;18.632;2023-04-21T11:02:58;101193.44;;;23.99;26.47
36380;BME280;22411;53.016;18.632;2023-04-21T11:05:36;101184.31;;;23.79;26.80
36380;BME280;22411;53.016;18.632;2023-04-21T11:08:11;101188.19;;;23.60;26.83
36380;BME280;22411;53.016;18.632;2023-04-21T11:10:53;101176.53;;;23.77;26.51
36380;BME280;22411;53.016;18.632;2023-04-21T11:13:24;101181.88;;;24.00;26.12
36380;BME280;22411;53.016;18.632;2023-04-21T11:15:58;101166.03;;;23.61;27.35
36380;BME280;22411;53.016;18.632;2023-04-21T11:18:36;101182.81;;;23.84;26.50
36380;BME280;22411;53.016;18.632;2023-04-21T11:21:12;101166.09;;;24.07;27.20
36380;BME280;22411;53.016;18.632;2023-04-21T11:23:47;101162.59;;;24.29;25.79
36380;BME280;22411;53.016;18.632;2023-04-21T11:26:14;101160.50;;;24.47;25.92
36380;BME280;22411;53.016;18.632;2023-04-21T11:28:41;101168.06;;;24.50;26.98
36380;BME280;22411;53.016;18.632;2023-04-21T11:31:07;101148.34;;;24.97;25.42
36380;BME280;22411;53.016;18.632;2023-04-21T11:33:37;101153.84;;;24.81;25.92
36380;BME280;22411;53.016;18.632;2023-04-21T11:36:05;101141.06;;;24.85;25.97
36380;BME280;22411;53.016;18.632;2023-04-21T11:38:39;101132.72;;;25.17;24.45
36380;BME280;22411;53.016;18.632;2023-04-21T11:41:06;101148.94;;;25.08;25.05
36380;BME280;22411;53.016;18.632;2023-04-21T11:43:32;101143.72;;;24.85;24.88
36380;BME280;22411;53.016;18.632;2023-04-21T11:46:21;101145.25;;;25.09;24.90
36380;BME280;22411;53.016;18.632;2023-04-21T11:49:06;101143.22;;;25.25;24.45
36380;BME280;22411;53.016;18.632;2023-04-21T11:51:34;101142.19;;;25.77;23.06
36380;BME280;22411;53.016;18.632;2023-04-21T11:54:04;101148.03;;;25.73;23.26
36380;BME280;22411;53.016;18.632;2023-04-21T11:56:37;101134.44;;;25.97;22.92
36380;BME280;22411;53.016;18.632;2023-04-21T11:59:10;101134.31;;;25.84;22.79
36380;BME280;22411;53.016;18.632;2023-04-21T12:01:44;101135.78;;;25.72;23.41
36380;BME280;22411;53.016;18.632;2023-04-21T12:04:18;101124.84;;;25.60;23.44
36380;BME280;22411;53.016;18.632;2023-04-21T12:06:46;101127.31;;;25.62;23.14
36380;BME280;22411;53.016;18.632;2023-04-21T12:09:17;101123.06;;;25.82;23.10
36380;BME280;22411;53.016;18.632;2023-04-21T12:11:45;101118.78;;;26.09;23.52
36380;BME280;22411;53.016;18.632;2023-04-21T12:14:14;101117.88;;;26.45;23.71
36380;BME280;22411;53.016;18.632;2023-04-21T12:16:40;101103.06;;;26.36;22.63
36380;BME280;22411;53.016;18.632;2023-04-21T12:19:07;101108.47;;;26.42;22.67
36380;BME280;22411;53.016;18.632;2023-04-21T12:21:36;101107.84;;;26.19;22.91
36380;BME280;22411;53.016;18.632;2023-04-21T12:24:04;101107.91;;;25.61;23.38
36380;BME280;22411;53.016;18.632;2023-04-21T12:26:30;101103.66;;;25.45;24.06
36380;BME280;22411;53.016;18.632;2023-04-21T12:28:56;101101.00;;;25.81;24.39
36380;BME280;22411;53.016;18.632;2023-04-21T12:31:25;101095.94;;;26.15;23.43
36380;BME280;22411;53.016;18.632;2023-04-21T12:33:51;101092.59;;;26.27;22.85
36380;BME280;22411;53.016;18.632;2023-04-21T12:36:17;101101.03;;;26.38;22.86
36380;BME280;22411;53.016;18.632;2023-04-21T12:38:44;101095.25;;;26.27;22.56
36380;BME280;22411;53.016;18.632;2023-04-21T12:41:10;101098.28;;;25.96;22.76
36380;BME280;22411;53.016;18.632;2023-04-21T12:43:36;101088.47;;;26.25;22.62
36380;BME280;22411;53.016;18.632;2023-04-21T12:46:02;101089.69;;;26.50;22.54
36380;BME280;22411;53.016;18.632;2023-04-21T12:48:29;101087.94;;;26.36;22.56
36380;BME280;22411;53.016;18.632;2023-04-21T12:50:55;101089.03;;;25.71;22.88